sensor_id;sensor_type;location;lat;lon;timestamp;P1;durP1;ratioP1;P2;durP2;ratioP2
18657;SDS011;9458;50.942;5.074;2024-03-08T00:01:21;40.17;;;18.08;;
18657;SDS011;9458;50.942;5.074;2024-03-08T00:03:49;35.25;;;16.48;;
18657;SDS011;9458;50.942;5.074;2024-03-08T00:06:17;37.50;;;16.92;;
18657;SDS011;9458;50.942;5.074;2024-03-08T00:08:44;33.25;;;16.83;;
18657;SDS011;9458;50.942;5.074;2024-03-08T00:11:12;35.45;;;16.95;;
18657;SDS011;9458;50.942;5.074;2024-03-08T00:13:39;33.85;;;16.67;;
18657;SDS011;9458;50.942;5.074;2024-03-08T00:16:07;32.90;;;16.73;;
18657;SDS011;9458;50.942;5.074;2024-03-08T00:18:34;34.10;;;17.13;;
18657;SDS011;9458;50.942;5.074;2024-03-08T00:21:05;31.90;;;16.92;;
18657;SDS011;9458;50.942;5.074;2024-03-08T00:23:34;33.95;;;17.20;;
18657;SDS011;9458;50.942;5.074;2024-03-08T00:26:01;38.25;;;17.42;;
18657;SDS011;9458;50.942;5.074;2024-03-08T00:28:29;32.80;;;16.40;;
18657;SDS011;9458;50.942;5.074;2024-03-08T00:30:56;34.33;;;18.17;;
18657;SDS011;9458;50.942;5.074;2024-03-08T00:33:24;34.88;;;17.27;;
18657;SDS011;9458;50.942;5.074;2024-03-08T00:35:52;34.75;;;17.80;;
18657;SDS011;9458;50.942;5.074;2024-03-08T00:38:21;33.13;;;17.23;;
18657;SDS011;9458;50.942;5.074;2024-03-08T00:40:48;34.23;;;18.30;;
18657;SDS011;9458;50.942;5.074;2024-03-08T00:43:15;31.27;;;16.98;;
18657;SDS011;9458;50.942;5.074;2024-03-08T00:45:42;33.22;;;16.55;;
18657;SDS011;9458;50.942;5.074;2024-03-08T00:48:09;31.98;;;16.42;;
18657;SDS011;9458;50.942;5.074;2024-03-08T00:50:37;34.30;;;18.13;;
18657;SDS011;9458;50.942;5.074;2024-03-08T00:53:05;33.53;;;18.42;;
18657;SDS011;9458;50.942;5.074;2024-03-08T00:55:33;32.88;;;17.38;;
18657;SDS011;9458;50.942;5.074;2024-03-08T00:58:00;38.90;;;19.10;;
18657;SDS011;9458;50.942;5.074;2024-03-08T01:00:27;32.88;;;18.23;;
18657;SDS011;9458;50.942;5.074;2024-03-08T01:02:54;33.92;;;18.13;;
18657;SDS011;9458;50.942;5.074;2024-03-08T01:05:22;33.30;;;18.85;;
18657;SDS011;9458;50.942;5.074;2024-03-08T01:07:52;32.28;;;18.90;;
18657;SDS011;9458;50.942;5.074;2024-03-08T01:10:19;34.70;;;19.67;;
18657;SDS011;9458;50.942;5.074;2024-03-08T01:12:48;33.63;;;19.08;;
18657;SDS011;9458;50.942;5.074;2024-03-08T01:15:16;31.77;;;18.13;;
18657;SDS011;9458;50.942;5.074;2024-03-08T01:17:43;32.25;;;18.30;;
18657;SDS011;9458;50.942;5.074;2024-03-08T01:20:10;32.90;;;18.30;;
18657;SDS011;9458;50.942;5.074;2024-03-08T01:22:37;36.65;;;20.40;;
18657;SDS011;9458;50.942;5.074;2024-03-08T01:25:05;33.65;;;19.02;;
18657;SDS011;9458;50.942;5.074;2024-03-08T01:27:33;34.97;;;18.05;;
18657;SDS011;9458;50.942;5.074;2024-03-08T01:30:04;36.60;;;20.30;;
18657;SDS011;9458;50.942;5.074;2024-03-08T01:32:32;31.02;;;17.60;;
18657;SDS011;9458;50.942;5.074;2024-03-08T01:34:59;35.63;;;19.83;;
18657;SDS011;9458;50.942;5.074;2024-03-08T01:37:27;35.08;;;19.02;;
18657;SDS011;9458;50.942;5.074;2024-03-08T01:39:55;37.35;;;20.65;;
18657;SDS011;9458;50.942;5.074;2024-03-08T01:42:23;34.33;;;19.70;;
18657;SDS011;9458;50.942;5.074;2024-03-08T01:44:51;33.42;;;20.08;;
18657;SDS011;9458;50.942;5.074;2024-03-08T01:47:20;37.25;;;20.02;;
18657;SDS011;9458;50.942;5.074;2024-03-08T01:49:48;36.13;;;21.80;;
18657;SDS011;9458;50.942;5.074;2024-03-08T01:52:16;33.25;;;20.50;;
18657;SDS011;9458;50.942;5.074;2024-03-08T01:54:47;33.40;;;20.40;;
18657;SDS011;9458;50.942;5.074;2024-03-08T01:57:15;37.72;;;20.90;;
18657;SDS011;9458;50.942;5.074;2024-03-08T01:59:42;35.58;;;20.20;;
18657;SDS011;9458;50.942;5.074;2024-03-08T02:02:14;32.20;;;20.10;;
18657;SDS011;9458;50.942;5.074;2024-03-08T02:04:46;35.80;;;21.45;;
18657;SDS011;9458;50.942;5.074;2024-03-08T02:07:14;37.50;;;21.17;;
18657;SDS011;9458;50.942;5.074;2024-03-08T02:09:41;33.70;;;20.10;;
18657;SDS011;9458;50.942;5.074;2024-03-08T02:12:09;35.95;;;21.80;;
18657;SDS011;9458;50.942;5.074;2024-03-08T02:14:37;39.90;;;21.00;;
18657;SDS011;9458;50.942;5.074;2024-03-08T02:17:05;36.10;;;20.15;;
18657;SDS011;9458;50.942;5.074;2024-03-08T02:19:33;35.75;;;20.85;;
18657;SDS011;9458;50.942;5.074;2024-03-08T02:22:02;34.63;;;20.65;;
18657;SDS011;9458;50.942;5.074;2024-03-08T02:24:30;37.70;;;20.17;;
18657;SDS011;9458;50.942;5.074;2024-03-08T02:26:58;34.03;;;19.67;;
18657;SDS011;9458;50.942;5.074;2024-03-08T02:29:26;36.75;;;20.45;;
18657;SDS011;9458;50.942;5.074;2024-03-08T02:31:54;38.17;;;21.70;;
18657;SDS011;9458;50.942;5.074;2024-03-08T02:34:22;36.03;;;20.52;;
18657;SDS011;9458;50.942;5.074;2024-03-08T02:36:49;36.53;;;20.15;;
18657;SDS011;9458;50.942;5.074;2024-03-08T02:39:18;40.88;;;21.30;;
18657;SDS011;9458;50.942;5.074;2024-03-08T02:41:47;32.42;;;19.25;;
18657;SDS011;9458;50.942;5.074;2024-03-08T02:44:14;37.58;;;20.58;;
18657;SDS011;9458;50.942;5.074;2024-03-08T02:46:41;37.00;;;20.80;;
18657;SDS011;9458;50.942;5.074;2024-03-08T02:49:11;35.33;;;20.80;;
18657;SDS011;9458;50.942;5.074;2024-03-08T02:51:38;41.63;;;22.20;;
18657;SDS011;9458;50.942;5.074;2024-03-08T02:54:05;37.60;;;20.20;;
18657;SDS011;9458;50.942;5.074;2024-03-08T02:56:34;36.60;;;21.35;;
18657;SDS011;9458;50.942;5.074;2024-03-08T02:59:04;38.77;;;22.00;;
18657;SDS011;9458;50.942;5.074;2024-03-08T03:01:33;36.95;;;20.80;;
18657;SDS011;9458;50.942;5.074;2024-03-08T03:04:01;34.63;;;20.55;;
18657;SDS011;9458;50.942;5.074;2024-03-08T03:06:29;40.47;;;20.98;;
18657;SDS011;9458;50.942;5.074;2024-03-08T03:08:56;36.10;;;21.20;;
18657;SDS011;9458;50.942;5.074;2024-03-08T03:11:23;37.28;;;19.80;;
18657;SDS011;9458;50.942;5.074;2024-03-08T03:13:53;37.67;;;21.45;;
18657;SDS011;9458;50.942;5.074;2024-03-08T03:16:21;37.40;;;20.38;;
18657;SDS011;9458;50.942;5.074;2024-03-08T03:18:49;44.47;;;22.23;;
18657;SDS011;9458;50.942;5.074;2024-03-08T03:21:17;46.10;;;22.38;;
18657;SDS011;9458;50.942;5.074;2024-03-08T03:23:44;39.58;;;20.77;;
18657;SDS011;9458;50.942;5.074;2024-03-08T03:26:13;40.05;;;21.17;;
18657;SDS011;9458;50.942;5.074;2024-03-08T03:28:42;40.83;;;22.45;;
18657;SDS011;9458;50.942;5.074;2024-03-08T03:31:11;37.40;;;21.08;;
18657;SDS011;9458;50.942;5.074;2024-03-08T03:33:40;40.22;;;20.75;;
18657;SDS011;9458;50.942;5.074;2024-03-08T03:36:07;40.05;;;21.70;;
18657;SDS011;9458;50.942;5.074;2024-03-08T03:38:35;36.78;;;20.80;;
18657;SDS011;9458;50.942;5.074;2024-03-08T03:41:02;39.97;;;22.55;;
18657;SDS011;9458;50.942;5.074;2024-03-08T03:43:35;38.70;;;21.83;;
18657;SDS011;9458;50.942;5.074;2024-03-08T03:46:05;39.92;;;21.35;;
18657;SDS011;9458;50.942;5.074;2024-03-08T03:48:40;41.67;;;21.40;;
18657;SDS011;9458;50.942;5.074;2024-03-08T03:53:36;39.60;;;21.55;;
18657;SDS011;9458;50.942;5.074;2024-03-08T03:56:03;36.95;;;20.23;;
18657;SDS011;9458;50.942;5.074;2024-03-08T03:58:32;38.33;;;20.48;;
18657;SDS011;9458;50.942;5.074;2024-03-08T04:00:59;40.22;;;20.83;;
18657;SDS011;9458;50.942;5.074;2024-03-08T04:03:26;41.03;;;22.20;;
18657;SDS011;9458;50.942;5.074;2024-03-08T04:05:56;39.20;;;21.80;;
18657;SDS011;9458;50.942;5.074;2024-03-08T04:08:23;44.42;;;22.30;;
18657;SDS011;9458;50.942;5.074;2024-03-08T04:10:50;40.50;;;22.33;;
18657;SDS011;9458;50.942;5.074;2024-03-08T04:13:17;38.70;;;21.33;;
18657;SDS011;9458;50.942;5.074;2024-03-08T04:15:46;37.85;;;20.75;;
18657;SDS011;9458;50.942;5.074;2024-03-08T04:18:13;38.22;;;21.45;;
18657;SDS011;9458;50.942;5.074;2024-03-08T04:20:41;37.35;;;20.98;;
18657;SDS011;9458;50.942;5.074;2024-03-08T04:23:10;38.85;;;20.60;;
18657;SDS011;9458;50.942;5.074;2024-03-08T04:25:37;41.92;;;20.75;;
18657;SDS011;9458;50.942;5.074;2024-03-08T04:28:07;43.30;;;21.25;;
18657;SDS011;9458;50.942;5.074;2024-03-08T04:30:38;40.05;;;21.98;;
18657;SDS011;9458;50.942;5.074;2024-03-08T04:33:06;40.77;;;21.43;;
18657;SDS011;9458;50.942;5.074;2024-03-08T04:35:34;42.47;;;22.65;;
18657;SDS011;9458;50.942;5.074;2024-03-08T04:38:01;42.13;;;21.48;;
18657;SDS011;9458;50.942;5.074;2024-03-08T04:40:31;40.15;;;21.73;;
18657;SDS011;9458;50.942;5.074;2024-03-08T04:42:59;40.78;;;20.58;;
18657;SDS011;9458;50.942;5.074;2024-03-08T04:45:27;40.92;;;21.38;;
18657;SDS011;9458;50.942;5.074;2024-03-08T04:47:56;38.33;;;20.27;;
18657;SDS011;9458;50.942;5.074;2024-03-08T04:50:23;41.83;;;21.02;;
18657;SDS011;9458;50.942;5.074;2024-03-08T04:52:54;39.35;;;22.02;;
18657;SDS011;9458;50.942;5.074;2024-03-08T04:55:22;39.60;;;20.45;;
18657;SDS011;9458;50.942;5.074;2024-03-08T04:57:51;39.87;;;20.93;;
18657;SDS011;9458;50.942;5.074;2024-03-08T05:00:18;40.87;;;20.30;;
18657;SDS011;9458;50.942;5.074;2024-03-08T05:02:46;41.50;;;22.33;;
18657;SDS011;9458;50.942;5.074;2024-03-08T05:05:13;40.45;;;21.08;;
18657;SDS011;9458;50.942;5.074;2024-03-08T05:07:41;43.47;;;22.95;;
18657;SDS011;9458;50.942;5.074;2024-03-08T05:10:11;43.15;;;21.67;;
18657;SDS011;9458;50.942;5.074;2024-03-08T05:12:42;41.88;;;22.50;;
18657;SDS011;9458;50.942;5.074;2024-03-08T05:15:11;39.95;;;22.13;;
18657;SDS011;9458;50.942;5.074;2024-03-08T05:17:39;43.70;;;22.08;;
18657;SDS011;9458;50.942;5.074;2024-03-08T05:20:07;42.10;;;20.65;;
18657;SDS011;9458;50.942;5.074;2024-03-08T05:22:37;41.58;;;20.83;;
18657;SDS011;9458;50.942;5.074;2024-03-08T05:25:05;39.38;;;21.67;;
18657;SDS011;9458;50.942;5.074;2024-03-08T05:27:34;42.75;;;21.17;;
18657;SDS011;9458;50.942;5.074;2024-03-08T05:30:02;39.65;;;20.40;;
18657;SDS011;9458;50.942;5.074;2024-03-08T05:32:32;44.40;;;20.90;;
18657;SDS011;9458;50.942;5.074;2024-03-08T05:34:59;47.30;;;22.10;;
18657;SDS011;9458;50.942;5.074;2024-03-08T05:37:28;42.60;;;20.80;;
18657;SDS011;9458;50.942;5.074;2024-03-08T05:39:56;40.20;;;21.73;;
18657;SDS011;9458;50.942;5.074;2024-03-08T05:42:25;40.17;;;21.97;;
18657;SDS011;9458;50.942;5.074;2024-03-08T05:44:53;48.87;;;21.40;;
18657;SDS011;9458;50.942;5.074;2024-03-08T05:47:24;40.78;;;21.02;;
18657;SDS011;9458;50.942;5.074;2024-03-08T05:49:52;41.10;;;20.52;;
18657;SDS011;9458;50.942;5.074;2024-03-08T05:52:19;42.50;;;21.80;;
18657;SDS011;9458;50.942;5.074;2024-03-08T05:54:47;41.65;;;20.70;;
18657;SDS011;9458;50.942;5.074;2024-03-08T05:57:14;41.95;;;21.10;;
18657;SDS011;9458;50.942;5.074;2024-03-08T05:59:42;41.92;;;20.73;;
18657;SDS011;9458;50.942;5.074;2024-03-08T06:02:09;43.70;;;22.00;;
18657;SDS011;9458;50.942;5.074;2024-03-08T06:04:37;42.65;;;22.08;;
18657;SDS011;9458;50.942;5.074;2024-03-08T06:07:07;36.45;;;19.45;;
18657;SDS011;9458;50.942;5.074;2024-03-08T06:09:37;41.55;;;20.80;;
18657;SDS011;9458;50.942;5.074;2024-03-08T06:12:05;39.85;;;21.40;;
18657;SDS011;9458;50.942;5.074;2024-03-08T06:14:36;44.70;;;21.05;;
18657;SDS011;9458;50.942;5.074;2024-03-08T06:17:03;36.22;;;19.05;;
18657;SDS011;9458;50.942;5.074;2024-03-08T06:19:32;39.90;;;19.85;;
18657;SDS011;9458;50.942;5.074;2024-03-08T06:22:01;40.63;;;19.95;;
18657;SDS011;9458;50.942;5.074;2024-03-08T06:24:33;37.35;;;19.77;;
18657;SDS011;9458;50.942;5.074;2024-03-08T06:27:01;40.58;;;20.05;;
18657;SDS011;9458;50.942;5.074;2024-03-08T06:29:29;40.97;;;19.33;;
18657;SDS011;9458;50.942;5.074;2024-03-08T06:31:56;39.05;;;20.13;;
18657;SDS011;9458;50.942;5.074;2024-03-08T06:34:25;41.97;;;21.38;;
18657;SDS011;9458;50.942;5.074;2024-03-08T06:36:52;38.45;;;19.92;;
18657;SDS011;9458;50.942;5.074;2024-03-08T06:39:26;37.30;;;20.67;;
18657;SDS011;9458;50.942;5.074;2024-03-08T06:41:57;37.90;;;20.02;;
18657;SDS011;9458;50.942;5.074;2024-03-08T06:44:25;36.78;;;20.00;;
18657;SDS011;9458;50.942;5.074;2024-03-08T06:46:53;35.63;;;19.63;;
18657;SDS011;9458;50.942;5.074;2024-03-08T06:49:20;37.17;;;20.80;;
18657;SDS011;9458;50.942;5.074;2024-03-08T06:51:47;38.20;;;20.95;;
18657;SDS011;9458;50.942;5.074;2024-03-08T06:54:15;35.28;;;20.30;;
18657;SDS011;9458;50.942;5.074;2024-03-08T06:56:42;37.83;;;22.23;;
18657;SDS011;9458;50.942;5.074;2024-03-08T06:59:10;35.42;;;21.02;;
18657;SDS011;9458;50.942;5.074;2024-03-08T07:01:38;36.80;;;22.25;;
18657;SDS011;9458;50.942;5.074;2024-03-08T07:04:05;32.75;;;19.40;;
18657;SDS011;9458;50.942;5.074;2024-03-08T07:06:33;34.10;;;20.45;;
18657;SDS011;9458;50.942;5.074;2024-03-08T07:09:01;32.10;;;19.83;;
18657;SDS011;9458;50.942;5.074;2024-03-08T07:11:29;30.42;;;19.55;;
18657;SDS011;9458;50.942;5.074;2024-03-08T07:13:56;34.08;;;20.15;;
18657;SDS011;9458;50.942;5.074;2024-03-08T07:16:25;32.92;;;20.45;;
18657;SDS011;9458;50.942;5.074;2024-03-08T07:18:52;32.03;;;20.85;;
18657;SDS011;9458;50.942;5.074;2024-03-08T07:21:19;36.78;;;20.30;;
18657;SDS011;9458;50.942;5.074;2024-03-08T07:23:47;30.73;;;20.42;;
18657;SDS011;9458;50.942;5.074;2024-03-08T07:26:28;32.33;;;20.88;;
18657;SDS011;9458;50.942;5.074;2024-03-08T07:28:56;30.88;;;21.00;;
18657;SDS011;9458;50.942;5.074;2024-03-08T07:31:27;31.98;;;20.35;;
18657;SDS011;9458;50.942;5.074;2024-03-08T07:34:09;30.40;;;20.15;;
18657;SDS011;9458;50.942;5.074;2024-03-08T07:36:37;29.20;;;19.02;;
18657;SDS011;9458;50.942;5.074;2024-03-08T07:39:05;31.83;;;21.70;;
18657;SDS011;9458;50.942;5.074;2024-03-08T07:41:36;29.55;;;19.15;;
18657;SDS011;9458;50.942;5.074;2024-03-08T07:44:05;34.67;;;22.85;;
18657;SDS011;9458;50.942;5.074;2024-03-08T07:46:34;30.20;;;19.00;;
18657;SDS011;9458;50.942;5.074;2024-03-08T07:51:28;31.55;;;20.42;;
18657;SDS011;9458;50.942;5.074;2024-03-08T07:53:55;29.83;;;19.98;;
18657;SDS011;9458;50.942;5.074;2024-03-08T07:56:23;28.42;;;19.63;;
18657;SDS011;9458;50.942;5.074;2024-03-08T07:58:50;27.20;;;18.40;;
18657;SDS011;9458;50.942;5.074;2024-03-08T08:01:18;30.33;;;19.38;;
18657;SDS011;9458;50.942;5.074;2024-03-08T08:03:47;26.58;;;18.92;;
18657;SDS011;9458;50.942;5.074;2024-03-08T08:06:15;26.13;;;19.33;;
18657;SDS011;9458;50.942;5.074;2024-03-08T08:08:42;27.55;;;18.65;;
18657;SDS011;9458;50.942;5.074;2024-03-08T08:11:09;27.05;;;18.55;;
18657;SDS011;9458;50.942;5.074;2024-03-08T08:13:37;26.17;;;18.05;;
18657;SDS011;9458;50.942;5.074;2024-03-08T08:16:04;27.50;;;20.05;;
18657;SDS011;9458;50.942;5.074;2024-03-08T08:18:32;28.85;;;19.27;;
18657;SDS011;9458;50.942;5.074;2024-03-08T08:21:02;26.75;;;19.38;;
18657;SDS011;9458;50.942;5.074;2024-03-08T08:23:31;28.48;;;20.17;;
18657;SDS011;9458;50.942;5.074;2024-03-08T08:25:58;25.70;;;19.05;;
18657;SDS011;9458;50.942;5.074;2024-03-08T08:28:26;24.30;;;18.27;;
18657;SDS011;9458;50.942;5.074;2024-03-08T08:30:53;26.95;;;19.33;;
18657;SDS011;9458;50.942;5.074;2024-03-08T08:33:21;25.48;;;18.83;;
18657;SDS011;9458;50.942;5.074;2024-03-08T08:35:50;28.15;;;19.70;;
18657;SDS011;9458;50.942;5.074;2024-03-08T08:38:20;23.52;;;17.90;;
18657;SDS011;9458;50.942;5.074;2024-03-08T08:40:48;27.33;;;17.60;;
18657;SDS011;9458;50.942;5.074;2024-03-08T08:43:15;25.80;;;18.50;;
18657;SDS011;9458;50.942;5.074;2024-03-08T08:45:43;26.70;;;18.77;;
18657;SDS011;9458;50.942;5.074;2024-03-08T08:48:12;24.35;;;17.60;;
18657;SDS011;9458;50.942;5.074;2024-03-08T08:50:39;26.27;;;18.50;;
18657;SDS011;9458;50.942;5.074;2024-03-08T08:53:07;23.73;;;18.15;;
18657;SDS011;9458;50.942;5.074;2024-03-08T08:55:35;22.60;;;17.80;;
18657;SDS011;9458;50.942;5.074;2024-03-08T08:58:02;21.83;;;17.58;;
18657;SDS011;9458;50.942;5.074;2024-03-08T09:00:32;25.70;;;18.15;;
18657;SDS011;9458;50.942;5.074;2024-03-08T09:02:59;24.65;;;18.13;;
18657;SDS011;9458;50.942;5.074;2024-03-08T09:05:27;26.05;;;18.08;;
18657;SDS011;9458;50.942;5.074;2024-03-08T09:07:54;27.60;;;19.15;;
18657;SDS011;9458;50.942;5.074;2024-03-08T09:10:22;28.63;;;18.08;;
18657;SDS011;9458;50.942;5.074;2024-03-08T09:12:51;23.20;;;17.80;;
18657;SDS011;9458;50.942;5.074;2024-03-08T09:15:18;22.45;;;17.75;;
18657;SDS011;9458;50.942;5.074;2024-03-08T09:17:46;23.50;;;17.13;;
18657;SDS011;9458;50.942;5.074;2024-03-08T09:20:14;22.88;;;17.92;;
18657;SDS011;9458;50.942;5.074;2024-03-08T09:22:43;23.92;;;17.48;;
18657;SDS011;9458;50.942;5.074;2024-03-08T09:25:12;20.40;;;16.50;;
18657;SDS011;9458;50.942;5.074;2024-03-08T09:27:39;24.20;;;17.15;;
18657;SDS011;9458;50.942;5.074;2024-03-08T09:30:08;24.55;;;17.35;;
18657;SDS011;9458;50.942;5.074;2024-03-08T09:32:38;21.30;;;16.88;;
18657;SDS011;9458;50.942;5.074;2024-03-08T09:35:05;20.30;;;16.27;;
18657;SDS011;9458;50.942;5.074;2024-03-08T09:37:33;22.50;;;16.30;;
18657;SDS011;9458;50.942;5.074;2024-03-08T09:40:00;21.67;;;15.98;;
18657;SDS011;9458;50.942;5.074;2024-03-08T09:42:30;21.58;;;15.32;;
18657;SDS011;9458;50.942;5.074;2024-03-08T09:44:57;25.15;;;16.88;;
18657;SDS011;9458;50.942;5.074;2024-03-08T09:47:27;21.13;;;16.50;;
18657;SDS011;9458;50.942;5.074;2024-03-08T09:49:59;21.77;;;15.80;;
18657;SDS011;9458;50.942;5.074;2024-03-08T09:52:26;23.35;;;16.30;;
18657;SDS011;9458;50.942;5.074;2024-03-08T09:54:56;23.38;;;15.55;;
18657;SDS011;9458;50.942;5.074;2024-03-08T09:57:23;23.50;;;15.25;;
18657;SDS011;9458;50.942;5.074;2024-03-08T09:59:51;21.88;;;14.38;;
18657;SDS011;9458;50.942;5.074;2024-03-08T10:02:18;28.35;;;15.25;;
18657;SDS011;9458;50.942;5.074;2024-03-08T10:04:47;26.67;;;16.30;;
18657;SDS011;9458;50.942;5.074;2024-03-08T10:07:15;27.60;;;15.25;;
18657;SDS011;9458;50.942;5.074;2024-03-08T10:09:42;26.52;;;14.95;;
18657;SDS011;9458;50.942;5.074;2024-03-08T10:12:15;22.38;;;13.82;;
18657;SDS011;9458;50.942;5.074;2024-03-08T10:14:45;26.00;;;15.40;;
18657;SDS011;9458;50.942;5.074;2024-03-08T10:17:12;26.75;;;14.73;;
18657;SDS011;9458;50.942;5.074;2024-03-08T10:19:44;25.08;;;15.57;;
18657;SDS011;9458;50.942;5.074;2024-03-08T10:22:18;24.83;;;14.68;;
18657;SDS011;9458;50.942;5.074;2024-03-08T10:24:45;21.75;;;13.77;;
18657;SDS011;9458;50.942;5.074;2024-03-08T10:27:13;24.52;;;15.10;;
18657;SDS011;9458;50.942;5.074;2024-03-08T10:29:42;21.98;;;14.82;;
18657;SDS011;9458;50.942;5.074;2024-03-08T10:32:13;24.02;;;14.38;;
18657;SDS011;9458;50.942;5.074;2024-03-08T10:34:40;30.45;;;14.35;;
18657;SDS011;9458;50.942;5.074;2024-03-08T10:37:11;24.98;;;14.10;;
18657;SDS011;9458;50.942;5.074;2024-03-08T10:39:42;28.80;;;16.08;;
18657;SDS011;9458;50.942;5.074;2024-03-08T10:42:26;23.30;;;14.13;;
18657;SDS011;9458;50.942;5.074;2024-03-08T10:44:58;26.95;;;14.75;;
18657;SDS011;9458;50.942;5.074;2024-03-08T10:47:33;25.80;;;14.10;;
18657;SDS011;9458;50.942;5.074;2024-03-08T10:50:08;22.75;;;13.85;;
18657;SDS011;9458;50.942;5.074;2024-03-08T10:52:48;27.40;;;14.73;;
18657;SDS011;9458;50.942;5.074;2024-03-08T10:55:17;23.90;;;13.77;;
18657;SDS011;9458;50.942;5.074;2024-03-08T10:57:45;25.60;;;14.20;;
18657;SDS011;9458;50.942;5.074;2024-03-08T11:00:13;26.08;;;15.52;;
18657;SDS011;9458;50.942;5.074;2024-03-08T11:02:43;24.05;;;14.18;;
18657;SDS011;9458;50.942;5.074;2024-03-08T11:05:13;25.77;;;14.20;;
18657;SDS011;9458;50.942;5.074;2024-03-08T11:08:00;24.58;;;13.82;;
18657;SDS011;9458;50.942;5.074;2024-03-08T11:10:28;21.73;;;13.98;;
18657;SDS011;9458;50.942;5.074;2024-03-08T11:12:56;24.02;;;14.30;;
18657;SDS011;9458;50.942;5.074;2024-03-08T11:15:23;23.70;;;13.77;;
18657;SDS011;9458;50.942;5.074;2024-03-08T11:17:51;23.92;;;13.82;;
18657;SDS011;9458;50.942;5.074;2024-03-08T11:20:23;21.55;;;13.55;;
18657;SDS011;9458;50.942;5.074;2024-03-08T11:22:52;26.73;;;15.23;;
18657;SDS011;9458;50.942;5.074;2024-03-08T11:25:34;22.90;;;14.35;;
18657;SDS011;9458;50.942;5.074;2024-03-08T11:28:11;26.30;;;14.77;;
18657;SDS011;9458;50.942;5.074;2024-03-08T11:30:42;26.77;;;14.30;;
18657;SDS011;9458;50.942;5.074;2024-03-08T11:33:14;24.98;;;13.68;;
18657;SDS011;9458;50.942;5.074;2024-03-08T11:35:43;24.20;;;14.68;;
18657;SDS011;9458;50.942;5.074;2024-03-08T11:38:11;22.67;;;14.32;;
18657;SDS011;9458;50.942;5.074;2024-03-08T11:40:43;25.60;;;14.65;;
18657;SDS011;9458;50.942;5.074;2024-03-08T11:43:15;24.65;;;14.50;;
18657;SDS011;9458;50.942;5.074;2024-03-08T11:45:43;26.48;;;15.20;;
18657;SDS011;9458;50.942;5.074;2024-03-08T11:48:10;29.15;;;15.38;;
18657;SDS011;9458;50.942;5.074;2024-03-08T11:50:38;26.88;;;15.02;;
18657;SDS011;9458;50.942;5.074;2024-03-08T11:53:06;25.90;;;14.43;;
18657;SDS011;9458;50.942;5.074;2024-03-08T11:55:33;25.88;;;14.10;;
18657;SDS011;9458;50.942;5.074;2024-03-08T11:58:03;23.30;;;14.70;;
18657;SDS011;9458;50.942;5.074;2024-03-08T12:00:33;25.23;;;14.93;;
18657;SDS011;9458;50.942;5.074;2024-03-08T12:03:06;26.48;;;15.18;;
18657;SDS011;9458;50.942;5.074;2024-03-08T12:05:36;24.33;;;14.13;;
18657;SDS011;9458;50.942;5.074;2024-03-08T12:08:04;25.92;;;14.35;;
18657;SDS011;9458;50.942;5.074;2024-03-08T12:10:32;27.13;;;14.43;;
18657;SDS011;9458;50.942;5.074;2024-03-08T12:13:00;24.40;;;14.70;;
18657;SDS011;9458;50.942;5.074;2024-03-08T12:15:29;27.67;;;15.13;;
18657;SDS011;9458;50.942;5.074;2024-03-08T12:17:59;21.63;;;13.60;;
18657;SDS011;9458;50.942;5.074;2024-03-08T12:20:27;23.08;;;13.45;;
18657;SDS011;9458;50.942;5.074;2024-03-08T12:25:26;26.90;;;14.95;;
18657;SDS011;9458;50.942;5.074;2024-03-08T12:27:56;25.90;;;15.32;;
18657;SDS011;9458;50.942;5.074;2024-03-08T12:30:37;25.48;;;15.00;;
18657;SDS011;9458;50.942;5.074;2024-03-08T12:33:12;27.70;;;14.27;;
18657;SDS011;9458;50.942;5.074;2024-03-08T12:35:39;26.15;;;14.70;;
18657;SDS011;9458;50.942;5.074;2024-03-08T12:38:07;25.15;;;14.27;;
18657;SDS011;9458;50.942;5.074;2024-03-08T12:40:34;21.83;;;13.68;;
18657;SDS011;9458;50.942;5.074;2024-03-08T12:43:05;23.33;;;14.15;;
18657;SDS011;9458;50.942;5.074;2024-03-08T12:45:33;26.02;;;14.25;;
18657;SDS011;9458;50.942;5.074;2024-03-08T12:48:02;23.42;;;13.50;;
18657;SDS011;9458;50.942;5.074;2024-03-08T12:50:39;21.25;;;12.88;;
18657;SDS011;9458;50.942;5.074;2024-03-08T12:53:08;22.17;;;13.60;;
18657;SDS011;9458;50.942;5.074;2024-03-08T12:55:35;24.45;;;14.18;;
18657;SDS011;9458;50.942;5.074;2024-03-08T12:58:03;23.92;;;13.88;;
18657;SDS011;9458;50.942;5.074;2024-03-08T13:00:32;23.63;;;13.68;;
18657;SDS011;9458;50.942;5.074;2024-03-08T13:03:03;24.45;;;14.38;;
18657;SDS011;9458;50.942;5.074;2024-03-08T13:05:31;22.83;;;13.02;;
18657;SDS011;9458;50.942;5.074;2024-03-08T13:07:59;22.88;;;13.55;;
18657;SDS011;9458;50.942;5.074;2024-03-08T13:10:26;19.75;;;12.77;;
18657;SDS011;9458;50.942;5.074;2024-03-08T13:12:54;21.30;;;13.40;;
18657;SDS011;9458;50.942;5.074;2024-03-08T13:15:21;21.70;;;13.60;;
18657;SDS011;9458;50.942;5.074;2024-03-08T13:17:48;21.75;;;12.85;;
18657;SDS011;9458;50.942;5.074;2024-03-08T13:20:17;25.92;;;15.10;;
18657;SDS011;9458;50.942;5.074;2024-03-08T13:22:45;22.10;;;12.77;;
18657;SDS011;9458;50.942;5.074;2024-03-08T13:25:13;18.80;;;12.15;;
18657;SDS011;9458;50.942;5.074;2024-03-08T13:27:41;24.25;;;13.63;;
18657;SDS011;9458;50.942;5.074;2024-03-08T13:30:09;20.50;;;12.90;;
18657;SDS011;9458;50.942;5.074;2024-03-08T13:32:39;21.85;;;13.27;;
18657;SDS011;9458;50.942;5.074;2024-03-08T13:35:08;21.55;;;13.63;;
18657;SDS011;9458;50.942;5.074;2024-03-08T13:37:41;21.67;;;12.85;;
18657;SDS011;9458;50.942;5.074;2024-03-08T13:40:09;18.23;;;12.10;;
18657;SDS011;9458;50.942;5.074;2024-03-08T13:42:39;24.50;;;13.80;;
18657;SDS011;9458;50.942;5.074;2024-03-08T13:45:07;21.15;;;12.85;;
18657;SDS011;9458;50.942;5.074;2024-03-08T13:47:36;23.10;;;13.55;;
18657;SDS011;9458;50.942;5.074;2024-03-08T13:50:05;23.02;;;13.15;;
18657;SDS011;9458;50.942;5.074;2024-03-08T13:52:36;21.63;;;13.23;;
18657;SDS011;9458;50.942;5.074;2024-03-08T13:55:05;22.95;;;13.40;;
18657;SDS011;9458;50.942;5.074;2024-03-08T13:57:33;20.52;;;12.75;;
18657;SDS011;9458;50.942;5.074;2024-03-08T14:00:01;27.45;;;12.70;;
18657;SDS011;9458;50.942;5.074;2024-03-08T14:02:32;21.33;;;13.60;;
18657;SDS011;9458;50.942;5.074;2024-03-08T14:04:59;23.20;;;13.38;;
18657;SDS011;9458;50.942;5.074;2024-03-08T14:07:27;22.02;;;12.70;;
18657;SDS011;9458;50.942;5.074;2024-03-08T14:09:55;23.42;;;12.60;;
18657;SDS011;9458;50.942;5.074;2024-03-08T14:12:23;21.15;;;12.25;;
18657;SDS011;9458;50.942;5.074;2024-03-08T14:14:51;19.95;;;12.38;;
18657;SDS011;9458;50.942;5.074;2024-03-08T14:17:19;22.25;;;12.18;;
18657;SDS011;9458;50.942;5.074;2024-03-08T14:19:46;19.98;;;12.35;;
18657;SDS011;9458;50.942;5.074;2024-03-08T14:22:13;20.27;;;12.68;;
18657;SDS011;9458;50.942;5.074;2024-03-08T14:24:41;19.30;;;12.75;;
18657;SDS011;9458;50.942;5.074;2024-03-08T14:27:09;18.88;;;12.70;;
18657;SDS011;9458;50.942;5.074;2024-03-08T14:29:38;24.38;;;13.20;;
18657;SDS011;9458;50.942;5.074;2024-03-08T14:32:06;24.02;;;11.98;;
18657;SDS011;9458;50.942;5.074;2024-03-08T14:34:35;23.02;;;13.30;;
18657;SDS011;9458;50.942;5.074;2024-03-08T14:37:02;19.48;;;12.23;;
18657;SDS011;9458;50.942;5.074;2024-03-08T14:39:33;20.77;;;12.95;;
18657;SDS011;9458;50.942;5.074;2024-03-08T14:42:00;21.27;;;13.18;;
18657;SDS011;9458;50.942;5.074;2024-03-08T14:44:29;21.33;;;12.25;;
18657;SDS011;9458;50.942;5.074;2024-03-08T14:46:58;21.42;;;12.27;;
18657;SDS011;9458;50.942;5.074;2024-03-08T14:49:25;19.65;;;11.38;;